Time;durP1;ratioP1;P1;durP2;ratioP2;P2;SDS_P1;SDS_P2;PMS_P1;PMS_P2;Temp;Humidity;BMP_temperature;BMP_pressure;BME280_temperature;BME280_humidity;BME280_pressure;Samples;Min_cycle;Max_cycle;Signal;HPM_P1;HPM_P2
2023/06/17 00:00:54;;;;;;;3.90;2.95;;;;;;;;;;8321639;28;20658;-62
2023/06/17 00:04:54;;;;;;;3.65;3.10;;;;;;;;;;8319212;28;20040;-61
2023/06/17 00:08:55;;;;;;;3.20;2.83;;;;;;;;;;8320750;28;20033;-61
2023/06/17 00:12:55;;;;;;;5.63;3.15;;;;;;;;;;8319649;28;20378;-61
2023/06/17 00:16:56;;;;;;;6.53;3.17;;;;;;;;;;8318962;28;20037;-61
2023/06/17 00:20:57;;;;;;;3.33;3.00;;;;;;;;;;8318799;28;20120;-62
2023/06/17 00:24:57;;;;;;;4.18;3.20;;;;;;;;;;8320312;28;20040;-61
2023/06/17 00:28:58;;;;;;;3.92;3.00;;;;;;;;;;8314438;28;20559;-62
2023/06/17 00:32:58;;;;;;;5.40;3.03;;;;;;;;;;8318644;28;20029;-61
2023/06/17 00:36:58;;;;;;;4.35;3.25;;;;;;;;;;8320174;28;20028;-61
2023/06/17 00:40:58;;;;;;;3.30;3.00;;;;;;;;;;8319847;28;20361;-61
2023/06/17 00:44:58;;;;;;;4.15;3.00;;;;;;;;;;8315932;28;20052;-61
2023/06/17 00:48:59;;;;;;;3.95;2.97;;;;;;;;;;8320152;28;20827;-62
2023/06/17 00:52:59;;;;;;;4.80;3.17;;;;;;;;;;8319719;28;20039;-61
2023/06/17 00:57:01;;;;;;;4.67;2.80;;;;;;;;;;8319585;28;20028;-61
2023/06/17 01:01:01;;;;;;;3.45;2.78;;;;;;;;;;8317436;28;20124;-61
2023/06/17 01:05:01;;;;;;;3.57;3.10;;;;;;;;;;8321592;28;20110;-61
2023/06/17 01:09:06;;;;;;;3.60;2.88;;;;;;;;;;8320328;28;21003;-61
2023/06/17 01:13:07;;;;;;;3.47;3.15;;;;;;;;;;8319181;28;20441;-61
2023/06/17 01:17:12;;;;;;;4.50;3.38;;;;;;;;;;8316868;28;20122;-61
2023/06/17 01:21:12;;;;;;;6.38;3.20;;;;;;;;;;8315092;28;20462;-62
2023/06/17 01:25:13;;;;;;;5.17;3.30;;;;;;;;;;8307566;28;20037;-62
2023/06/17 01:29:13;;;;;;;3.20;2.80;;;;;;;;;;8316355;28;20836;-61
2023/06/17 01:33:14;;;;;;;4.03;3.10;;;;;;;;;;8317043;28;20044;-62
2023/06/17 01:37:15;;;;;;;4.65;3.00;;;;;;;;;;8315384;28;20385;-62
2023/06/17 01:41:17;;;;;;;3.97;2.80;;;;;;;;;;8319387;28;20079;-61
2023/06/17 01:45:18;;;;;;;4.82;3.08;;;;;;;;;;8313700;28;20889;-61
2023/06/17 01:49:18;;;;;;;3.28;2.97;;;;;;;;;;8315839;28;20047;-61
2023/06/17 01:53:19;;;;;;;3.57;3.10;;;;;;;;;;8316380;28;20017;-62
2023/06/17 01:57:19;;;;;;;4.43;3.50;;;;;;;;;;8316543;28;20029;-61
2023/06/17 02:01:19;;;;;;;3.67;3.27;;;;;;;;;;8316739;28;20048;-61
2023/06/17 02:05:19;;;;;;;4.63;3.03;;;;;;;;;;8317462;28;20028;-61
2023/06/17 02:09:20;;;;;;;5.55;3.50;;;;;;;;;;8318233;28;20155;-61
2023/06/17 02:13:20;;;;;;;4.15;3.67;;;;;;;;;;8318403;28;20039;-61
2023/06/17 02:17:20;;;;;;;3.85;3.15;;;;;;;;;;8317734;28;20102;-61
2023/06/17 02:21:20;;;;;;;5.80;3.17;;;;;;;;;;8315593;28;20108;-61
2023/06/17 02:25:21;;;;;;;3.45;3.15;;;;;;;;;;8315518;28;20154;-61
2023/06/17 02:29:21;;;;;;;4.30;3.53;;;;;;;;;;8315211;28;20140;-61
2023/06/17 02:33:22;;;;;;;4.57;3.20;;;;;;;;;;8316886;28;20043;-61
2023/06/17 02:37:23;;;;;;;4.65;3.17;;;;;;;;;;8314626;28;20024;-61
2023/06/17 02:41:23;;;;;;;3.73;3.33;;;;;;;;;;8316018;28;20785;-62
2023/06/17 02:45:23;;;;;;;4.13;3.53;;;;;;;;;;8318739;28;20316;-62
2023/06/17 02:49:23;;;;;;;3.70;3.33;;;;;;;;;;8315289;28;20025;-61
2023/06/17 02:53:23;;;;;;;5.07;3.47;;;;;;;;;;8316339;28;20020;-61
2023/06/17 02:57:24;;;;;;;4.70;3.70;;;;;;;;;;8313326;28;20074;-62
2023/06/17 03:01:24;;;;;;;4.55;3.40;;;;;;;;;;8314742;28;20033;-61
2023/06/17 03:05:24;;;;;;;3.47;3.13;;;;;;;;;;8318019;28;20025;-62
2023/06/17 03:09:26;;;;;;;4.13;3.50;;;;;;;;;;8320847;28;20029;-61
2023/06/17 03:13:26;;;;;;;5.90;3.15;;;;;;;;;;8324210;28;20132;-61
2023/06/17 03:17:27;;;;;;;3.80;3.40;;;;;;;;;;8323118;28;20449;-62
2023/06/17 03:21:29;;;;;;;3.65;3.25;;;;;;;;;;8324504;28;20103;-62
2023/06/17 03:25:30;;;;;;;7.30;3.40;;;;;;;;;;8321192;28;20879;-61
2023/06/17 03:29:30;;;;;;;3.97;3.33;;;;;;;;;;8320250;28;20076;-61
2023/06/17 03:33:30;;;;;;;4.17;3.40;;;;;;;;;;8322671;28;20055;-61
2023/06/17 03:37:30;;;;;;;6.40;3.72;;;;;;;;;;8322546;28;20275;-62
2023/06/17 03:41:31;;;;;;;6.33;3.70;;;;;;;;;;8324018;28;20025;-61
2023/06/17 03:45:32;;;;;;;7.43;3.80;;;;;;;;;;8319667;28;20037;-62
2023/06/17 03:49:32;;;;;;;4.65;3.72;;;;;;;;;;8319821;28;20154;-62
2023/06/17 03:53:33;;;;;;;5.70;3.67;;;;;;;;;;8320425;28;20024;-62
2023/06/17 03:57:33;;;;;;;4.77;3.37;;;;;;;;;;8321813;28;20040;-62
2023/06/17 04:01:35;;;;;;;4.13;3.73;;;;;;;;;;8322319;28;20280;-62
2023/06/17 04:05:35;;;;;;;5.95;3.33;;;;;;;;;;8320262;28;20120;-62
2023/06/17 04:09:36;;;;;;;4.68;3.17;;;;;;;;;;8321112;28;20056;-61
2023/06/17 04:13:36;;;;;;;4.40;3.40;;;;;;;;;;8320033;28;20028;-61
2023/06/17 04:17:36;;;;;;;3.47;3.17;;;;;;;;;;8318472;28;20033;-61
2023/06/17 04:21:36;;;;;;;6.55;3.47;;;;;;;;;;8319448;28;20031;-61
2023/06/17 04:25:37;;;;;;;3.65;3.33;;;;;;;;;;8319393;28;20103;-61
2023/06/17 04:29:37;;;;;;;5.23;3.13;;;;;;;;;;8317295;28;20036;-61
2023/06/17 04:33:37;;;;;;;5.50;3.22;;;;;;;;;;8317578;28;20098;-61
2023/06/17 04:37:38;;;;;;;3.78;3.20;;;;;;;;;;8319046;28;20031;-61
2023/06/17 04:41:38;;;;;;;4.93;3.25;;;;;;;;;;8321760;28;20025;-62
2023/06/17 04:45:39;;;;;;;5.93;3.20;;;;;;;;;;8320742;28;20110;-62
2023/06/17 04:49:41;;;;;;;6.18;3.45;;;;;;;;;;8319186;28;20019;-61
2023/06/17 04:53:42;;;;;;;9.32;3.70;;;;;;;;;;8314487;28;20086;-61
2023/06/17 04:57:42;;;;;;;8.05;3.60;;;;;;;;;;8319902;28;21421;-62
2023/06/17 05:01:43;;;;;;;6.28;3.70;;;;;;;;;;8319645;28;20093;-61
2023/06/17 05:05:43;;;;;;;5.30;3.60;;;;;;;;;;8315810;28;20131;-62
2023/06/17 05:09:43;;;;;;;7.40;3.28;;;;;;;;;;8317143;28;20511;-61
2023/06/17 05:13:44;;;;;;;3.60;3.30;;;;;;;;;;8318388;28;20017;-61
2023/06/17 05:17:44;;;;;;;4.75;3.30;;;;;;;;;;8316288;28;20081;-61
2023/06/17 05:21:44;;;;;;;3.75;3.22;;;;;;;;;;8317693;28;20031;-61
2023/06/17 05:25:44;;;;;;;5.28;3.55;;;;;;;;;;8315159;28;20056;-61
2023/06/17 05:29:45;;;;;;;4.27;3.53;;;;;;;;;;8317042;28;20697;-62
2023/06/17 05:33:45;;;;;;;4.40;3.10;;;;;;;;;;8315360;28;20267;-61
2023/06/17 05:37:45;;;;;;;4.45;3.40;;;;;;;;;;8319923;28;20152;-62
2023/06/17 05:41:45;;;;;;;4.22;3.22;;;;;;;;;;8317299;28;20036;-62
2023/06/17 05:45:45;;;;;;;7.13;3.30;;;;;;;;;;8315423;28;20737;-62
2023/06/17 05:49:46;;;;;;;4.43;3.00;;;;;;;;;;8315614;28;20040;-62
2023/06/17 05:53:46;;;;;;;5.78;3.20;;;;;;;;;;8316107;28;20028;-62
2023/06/17 05:57:46;;;;;;;4.47;3.15;;;;;;;;;;8314601;28;20033;-62
2023/06/17 06:01:47;;;;;;;7.10;3.50;;;;;;;;;;8312119;28;20043;-62
2023/06/17 06:05:48;;;;;;;4.78;3.40;;;;;;;;;;8316903;28;20128;-62
2023/06/17 06:09:48;;;;;;;7.38;3.85;;;;;;;;;;8316736;28;20442;-62
2023/06/17 06:13:48;;;;;;;4.33;3.70;;;;;;;;;;8317762;28;20491;-62
2023/06/17 06:17:48;;;;;;;4.53;3.70;;;;;;;;;;8314273;28;20480;-62
2023/06/17 06:21:48;;;;;;;4.13;3.63;;;;;;;;;;8316226;28;20021;-62
2023/06/17 06:25:49;;;;;;;12.00;4.10;;;;;;;;;;8312383;28;20043;-61
2023/06/17 06:29:49;;;;;;;4.68;3.30;;;;;;;;;;8312056;28;20448;-61
2023/06/17 06:33:49;;;;;;;4.70;3.40;;;;;;;;;;8304241;28;20025;-62
2023/06/17 06:37:50;;;;;;;4.00;3.47;;;;;;;;;;8316058;28;20025;-62
2023/06/17 06:41:50;;;;;;;4.20;3.75;;;;;;;;;;8316281;28;20032;-62
2023/06/17 06:45:51;;;;;;;4.45;3.40;;;;;;;;;;8313173;28;20065;-63
2023/06/17 06:49:51;;;;;;;4.40;3.30;;;;;;;;;;8313881;28;20458;-62
2023/06/17 06:53:51;;;;;;;4.20;3.40;;;;;;;;;;8316165;28;20059;-62
2023/06/17 06:57:51;;;;;;;5.20;3.20;;;;;;;;;;8314846;28;20869;-62
2023/06/17 07:01:52;;;;;;;4.07;3.13;;;;;;;;;;8315955;28;20060;-62
2023/06/17 07:05:52;;;;;;;4.90;3.13;;;;;;;;;;8315275;28;20021;-62
2023/06/17 07:09:52;;;;;;;5.15;3.50;;;;;;;;;;8313086;28;20033;-62
2023/06/17 07:13:52;;;;;;;3.83;2.93;;;;;;;;;;8312506;28;20838;-62
2023/06/17 07:17:52;;;;;;;5.60;3.50;;;;;;;;;;8313239;28;20037;-62
2023/06/17 07:21:53;;;;;;;3.72;3.28;;;;;;;;;;8314326;28;20021;-62
2023/06/17 07:25:53;;;;;;;4.32;3.25;;;;;;;;;;8315481;28;20039;-62
2023/06/17 07:29:54;;;;;;;3.83;3.10;;;;;;;;;;8307445;28;20023;-62
2023/06/17 07:33:54;;;;;;;3.25;2.90;;;;;;;;;;8310541;28;20033;-62
2023/06/17 07:37:54;;;;;;;3.33;3.03;;;;;;;;;;8312058;28;20077;-62
2023/06/17 07:41:55;;;;;;;2.95;2.70;;;;;;;;;;8312234;28;20029;-62
2023/06/17 07:45:55;;;;;;;3.87;2.80;;;;;;;;;;8314261;28;20044;-62
2023/06/17 07:49:55;;;;;;;3.00;2.75;;;;;;;;;;8306105;28;20810;-62
2023/06/17 07:53:55;;;;;;;8.15;3.38;;;;;;;;;;8306437;28;20049;-62
2023/06/17 07:57:55;;;;;;;3.92;2.80;;;;;;;;;;8312991;28;20094;-62
2023/06/17 08:01:56;;;;;;;5.32;3.05;;;;;;;;;;8317584;28;20041;-62
2023/06/17 08:05:57;;;;;;;6.10;3.05;;;;;;;;;;8317373;28;20874;-62
2023/06/17 08:09:57;;;;;;;3.28;2.97;;;;;;;;;;8314807;28;20059;-62
2023/06/17 08:13:57;;;;;;;6.17;3.07;;;;;;;;;;8318608;28;20146;-62
2023/06/17 08:17:58;;;;;;;5.10;2.90;;;;;;;;;;8314468;28;20037;-62
2023/06/17 08:21:58;;;;;;;5.20;3.22;;;;;;;;;;8316506;28;20025;-62
2023/06/17 08:25:58;;;;;;;3.27;2.87;;;;;;;;;;8312307;28;20032;-62
2023/06/17 08:29:59;;;;;;;4.53;3.35;;;;;;;;;;8313391;28;20148;-62
2023/06/17 08:33:59;;;;;;;3.20;2.90;;;;;;;;;;8317456;28;20676;-62
2023/06/17 08:38:01;;;;;;;3.13;2.83;;;;;;;;;;8315956;28;20036;-62
2023/06/17 08:42:01;;;;;;;3.55;2.90;;;;;;;;;;8317153;28;20705;-62
2023/06/17 08:46:01;;;;;;;4.50;2.63;;;;;;;;;;8317425;28;20041;-62
2023/06/17 08:50:02;;;;;;;3.50;2.83;;;;;;;;;;8316081;28;20144;-62
2023/06/17 08:54:03;;;;;;;3.60;2.80;;;;;;;;;;8314853;28;20430;-62
2023/06/17 08:58:03;;;;;;;5.60;2.73;;;;;;;;;;8318251;28;20033;-62
2023/06/17 09:02:04;;;;;;;3.00;2.80;;;;;;;;;;8318305;28;20512;-62
2023/06/17 09:06:15;;;;;;;3.90;3.03;;;;;;;;;;8312667;28;20443;-62
2023/06/17 09:10:15;;;;;;;2.77;2.57;;;;;;;;;;8316786;28;20491;-62
2023/06/17 09:14:16;;;;;;;5.13;3.10;;;;;;;;;;8316622;28;20267;-62
2023/06/17 09:18:17;;;;;;;3.97;2.70;;;;;;;;;;8316391;28;20170;-62
2023/06/17 09:22:17;;;;;;;3.70;2.97;;;;;;;;;;8313587;28;20025;-62
2023/06/17 09:26:17;;;;;;;3.17;2.90;;;;;;;;;;8317904;28;20048;-62
2023/06/17 09:30:20;;;;;;;4.05;2.85;;;;;;;;;;8313292;28;20060;-62
2023/06/17 09:34:21;;;;;;;2.97;2.67;;;;;;;;;;8313361;28;20024;-62
2023/06/17 09:38:21;;;;;;;3.45;2.45;;;;;;;;;;8312813;28;20091;-62
2023/06/17 09:42:22;;;;;;;3.58;2.75;;;;;;;;;;8318565;28;20171;-62
2023/06/17 09:46:29;;;;;;;2.83;2.60;;;;;;;;;;8306277;28;20083;-62
2023/06/17 09:50:32;;;;;;;3.67;2.85;;;;;;;;;;8305669;28;20134;-62
2023/06/17 09:54:33;;;;;;;3.20;2.90;;;;;;;;;;8310222;28;20017;-62
2023/06/17 09:58:34;;;;;;;3.25;2.70;;;;;;;;;;8312094;28;21616;-62
2023/06/17 10:02:35;;;;;;;2.92;2.72;;;;;;;;;;8314461;28;20386;-62
2023/06/17 10:06:35;;;;;;;3.87;2.83;;;;;;;;;;8309394;28;21076;-62
2023/06/17 10:10:36;;;;;;;3.38;2.50;;;;;;;;;;8311890;28;20414;-62
2023/06/17 10:14:37;;;;;;;3.10;2.53;;;;;;;;;;8315314;28;20079;-62
2023/06/17 10:18:39;;;;;;;3.95;3.00;;;;;;;;;;8314025;28;20047;-62
2023/06/17 10:22:40;;;;;;;2.80;2.60;;;;;;;;;;8313080;28;20032;-62
2023/06/17 10:26:41;;;;;;;;;;;;;;;;;;8314266;28;20032;-62
2023/06/17 10:30:45;;;;;;;2.97;2.78;;;;;;;;;;8311637;28;20338;-62
2023/06/17 10:35:15;;;;;;;4.15;2.72;;;;;;;;;;8314665;28;20036;-62
2023/06/17 10:39:15;;;;;;;3.45;2.90;;;;;;;;;;8305670;28;20083;-62
2023/06/17 10:43:17;;;;;;;4.73;2.70;;;;;;;;;;8309916;28;20139;-62
2023/06/17 10:47:21;;;;;;;2.97;2.67;;;;;;;;;;8310573;28;20036;-62
2023/06/17 10:51:23;;;;;;;3.42;2.70;;;;;;;;;;8313125;28;20023;-63
2023/06/17 10:55:23;;;;;;;3.47;2.80;;;;;;;;;;8311195;28;20029;-62
2023/06/17 10:59:27;;;;;;;7.03;2.90;;;;;;;;;;8308549;28;20094;-62
2023/06/17 11:03:28;;;;;;;4.38;2.83;;;;;;;;;;8308044;28;20041;-62
2023/06/17 11:07:28;;;;;;;3.60;2.88;;;;;;;;;;8305702;28;20039;-62
2023/06/17 11:11:29;;;;;;;2.95;2.65;;;;;;;;;;8310828;28;20025;-62
2023/06/17 11:15:30;;;;;;;2.97;2.67;;;;;;;;;;8306600;28;20201;-62
2023/06/17 11:19:30;;;;;;;3.20;2.90;;;;;;;;;;8311621;28;20106;-62
2023/06/17 11:23:31;;;;;;;2.90;2.70;;;;;;;;;;8307513;28;20782;-62
2023/06/17 11:27:31;;;;;;;3.25;2.95;;;;;;;;;;8313664;28;20039;-62
2023/06/17 11:31:35;;;;;;;3.47;2.60;;;;;;;;;;8313946;28;20426;-62
2023/06/17 11:35:36;;;;;;;3.13;2.60;;;;;;;;;;8316650;28;20021;-62
2023/06/17 11:39:37;;;;;;;2.92;2.70;;;;;;;;;;8315018;28;20040;-62
2023/06/17 11:43:37;;;;;;;3.83;2.70;;;;;;;;;;8315413;28;20850;-62
2023/06/17 12:40:34;;;;;;;2.80;2.60;;;;;;;;;;8403741;27;20370;-60
2023/06/17 12:44:34;;;;;;;4.00;2.72;;;;;;;;;;8290756;28;1203829;-60
2023/06/17 12:48:34;;;;;;;5.23;2.83;;;;;;;;;;8336613;28;20052;-60
2023/06/17 12:52:34;;;;;;;3.10;2.70;;;;;;;;;;8340445;28;20021;-60
2023/06/17 12:56:35;;;;;;;2.78;2.58;;;;;;;;;;8337695;28;20029;-60
2023/06/17 13:00:35;;;;;;;3.17;2.88;;;;;;;;;;8342710;28;20650;-60
2023/06/17 13:04:35;;;;;;;4.13;2.70;;;;;;;;;;8369748;28;20043;-60
2023/06/17 13:08:35;;;;;;;4.40;2.88;;;;;;;;;;8370777;28;20098;-61
2023/06/17 13:12:36;;;;;;;4.10;2.75;;;;;;;;;;8375253;28;20097;-61
2023/06/17 13:16:36;;;;;;;5.03;3.00;;;;;;;;;;8358700;28;20068;-60
2023/06/17 13:20:37;;;;;;;6.20;2.93;;;;;;;;;;8332076;28;20041;-60
2023/06/17 13:24:37;;;;;;;3.38;3.00;;;;;;;;;;8335544;28;20673;-60
2023/06/17 13:28:38;;;;;;;3.05;2.85;;;;;;;;;;8335706;28;20028;-60
2023/06/17 13:32:38;;;;;;;;;;;;;;;;;;8335563;28;20455;-60
2023/06/17 13:36:42;;;;;;;5.32;3.10;;;;;;;;;;8334921;28;19912;-62
2023/06/17 13:40:42;;;;;;;4.50;3.00;;;;;;;;;;8335434;28;20027;-60
2023/06/17 13:44:44;;;;;;;4.43;3.13;;;;;;;;;;8365465;28;20036;-60
2023/06/17 13:48:44;;;;;;;3.20;2.90;;;;;;;;;;8351878;28;20068;-60
2023/06/17 13:52:44;;;;;;;3.13;2.90;;;;;;;;;;8348792;28;20043;-60
2023/06/17 13:56:45;;;;;;;6.55;3.13;;;;;;;;;;8344264;28;20021;-60
2023/06/17 14:00:45;;;;;;;;;;;;;;;;;;8345607;28;21014;-61
2023/06/17 14:04:46;;;;;;;3.15;2.95;;;;;;;;;;8343171;28;19916;-60
2023/06/17 14:08:46;;;;;;;3.07;2.77;;;;;;;;;;8343021;28;20102;-60
2023/06/17 14:12:46;;;;;;;4.87;3.30;;;;;;;;;;8344554;28;20028;-61
2023/06/17 14:16:47;;;;;;;4.35;3.10;;;;;;;;;;8345471;28;20037;-60
2023/06/17 14:20:47;;;;;;;5.70;3.28;;;;;;;;;;8346096;28;20130;-60
2023/06/17 14:24:47;;;;;;;3.90;2.97;;;;;;;;;;8345436;28;20091;-60
2023/06/17 14:28:47;;;;;;;3.10;2.80;;;;;;;;;;8346646;28;20568;-60
2023/06/17 14:32:48;;;;;;;3.63;3.28;;;;;;;;;;8344410;28;20434;-60
2023/06/17 14:36:48;;;;;;;3.42;3.10;;;;;;;;;;8344036;28;20067;-61
2023/06/17 14:40:48;;;;;;;3.33;3.00;;;;;;;;;;8346781;28;20044;-60
2023/06/17 14:44:49;;;;;;;3.40;3.10;;;;;;;;;;8343425;28;20379;-60
2023/06/17 14:48:49;;;;;;;3.37;2.83;;;;;;;;;;8344610;28;20040;-60
2023/06/17 14:52:50;;;;;;;3.22;2.92;;;;;;;;;;8343364;28;20111;-62
2023/06/17 14:56:50;;;;;;;3.60;3.30;;;;;;;;;;8343141;28;20090;-60
2023/06/17 15:00:50;;;;;;;3.17;2.97;;;;;;;;;;8340862;28;20301;-60
2023/06/17 15:04:50;;;;;;;4.47;3.05;;;;;;;;;;8343272;28;20054;-60
2023/06/17 15:09:22;;;;;;;3.50;3.20;;;;;;;;;;8325422;28;20020;-60
2023/06/17 15:13:22;;;;;;;;;;;;;;;;;;8345135;28;20040;-60
2023/06/17 15:17:22;;;;;;;3.38;3.10;;;;;;;;;;8342658;28;19926;-60
2023/06/17 15:21:23;;;;;;;3.33;3.03;;;;;;;;;;8340946;28;20059;-60
2023/06/17 15:25:23;;;;;;;5.15;3.42;;;;;;;;;;8328807;28;20036;-60
2023/06/17 15:29:23;;;;;;;3.25;3.05;;;;;;;;;;8346769;28;20116;-60
2023/06/17 15:33:23;;;;;;;4.00;3.10;;;;;;;;;;8343553;28;20098;-60
2023/06/17 15:37:24;;;;;;;3.13;2.92;;;;;;;;;;8344721;28;20024;-60
2023/06/17 15:41:24;;;;;;;3.43;3.00;;;;;;;;;;8344496;28;20516;-60
2023/06/17 15:45:24;;;;;;;4.32;3.00;;;;;;;;;;8343136;28;20045;-60
2023/06/17 15:49:24;;;;;;;3.80;2.92;;;;;;;;;;8342769;28;20008;-60
2023/06/17 15:53:25;;;;;;;4.50;3.25;;;;;;;;;;8342710;28;20052;-60
2023/06/17 15:57:25;;;;;;;3.57;3.10;;;;;;;;;;8343283;28;20013;-60
2023/06/17 16:01:26;;;;;;;3.50;3.20;;;;;;;;;;8344607;28;20028;-60
2023/06/17 16:05:26;;;;;;;4.63;2.93;;;;;;;;;;8341183;28;20128;-60
2023/06/17 16:09:28;;;;;;;3.65;2.90;;;;;;;;;;8342151;28;20032;-60
2023/06/17 16:13:29;;;;;;;3.13;2.83;;;;;;;;;;8342099;28;20111;-60
2023/06/17 16:17:29;;;;;;;3.40;3.10;;;;;;;;;;8346008;28;20036;-60
2023/06/17 16:21:29;;;;;;;4.03;2.90;;;;;;;;;;8342999;28;20029;-60
2023/06/17 16:25:29;;;;;;;7.60;2.70;;;;;;;;;;8341210;28;20025;-60
2023/06/17 16:29:30;;;;;;;4.30;2.72;;;;;;;;;;8336622;28;20111;-61
2023/06/17 16:33:32;;;;;;;3.93;2.80;;;;;;;;;;8339676;28;20029;-60
2023/06/17 16:37:32;;;;;;;2.88;2.67;;;;;;;;;;8342888;28;20510;-60
2023/06/17 16:41:32;;;;;;;6.38;3.00;;;;;;;;;;8342715;28;20098;-58
2023/06/17 16:45:33;;;;;;;6.35;2.78;;;;;;;;;;8340774;28;20780;-57
2023/06/17 16:49:35;;;;;;;3.05;2.85;;;;;;;;;;8344545;28;20112;-57
2023/06/17 16:53:35;;;;;;;;;;;;;;;;;;8342937;28;20017;-58
2023/06/17 16:57:35;;;;;;;3.53;2.83;;;;;;;;;;8339817;28;20039;-57
2023/06/17 17:01:35;;;;;;;3.85;2.90;;;;;;;;;;8339707;28;20032;-58
2023/06/17 17:05:36;;;;;;;3.00;2.72;;;;;;;;;;8341072;28;20097;-58
2023/06/17 17:09:36;;;;;;;3.05;2.53;;;;;;;;;;8341169;28;20473;-60
2023/06/17 17:13:36;;;;;;;4.00;2.80;;;;;;;;;;8343454;28;20025;-60
2023/06/17 17:17:37;;;;;;;3.70;3.00;;;;;;;;;;8343644;28;20292;-60
2023/06/17 17:21:37;;;;;;;3.13;2.90;;;;;;;;;;8340528;28;20047;-60
2023/06/17 17:25:37;;;;;;;4.38;2.78;;;;;;;;;;8349736;28;20024;-60
2023/06/17 17:29:38;;;;;;;7.90;5.85;;;;;;;;;;8350337;28;20031;-60
2023/06/17 17:33:38;;;;;;;5.25;4.70;;;;;;;;;;8349122;28;20087;-60
2023/06/17 17:37:38;;;;;;;4.97;3.72;;;;;;;;;;8350349;28;20025;-60
2023/06/17 17:41:38;;;;;;;3.83;3.03;;;;;;;;;;8348816;28;20100;-60
2023/06/17 17:45:38;;;;;;;3.97;3.40;;;;;;;;;;8349560;28;20029;-60
2023/06/17 17:49:39;;;;;;;5.60;3.40;;;;;;;;;;8351284;28;20013;-60
2023/06/17 17:53:39;;;;;;;3.40;3.10;;;;;;;;;;8350117;28;20024;-60
2023/06/17 17:57:39;;;;;;;3.70;3.20;;;;;;;;;;8349890;28;20123;-60
2023/06/17 18:01:40;;;;;;;5.30;3.00;;;;;;;;;;8351381;28;20275;-60
2023/06/17 18:05:40;;;;;;;3.60;3.07;;;;;;;;;;8353826;28;20424;-60
2023/06/17 18:09:41;;;;;;;3.10;2.80;;;;;;;;;;8347141;28;20627;-60
2023/06/17 18:13:41;;;;;;;3.42;3.20;;;;;;;;;;8351576;28;20031;-60
2023/06/17 18:17:41;;;;;;;4.88;3.08;;;;;;;;;;8349236;28;20052;-60
2023/06/17 18:21:41;;;;;;;3.50;3.20;;;;;;;;;;8350664;28;20487;-60
2023/06/17 18:25:41;;;;;;;3.33;2.90;;;;;;;;;;8347321;28;20033;-60
2023/06/17 18:29:42;;;;;;;3.33;3.03;;;;;;;;;;8352299;28;20469;-61
2023/06/17 18:33:42;;;;;;;3.92;3.42;;;;;;;;;;8347917;28;20064;-60
2023/06/17 18:37:42;;;;;;;4.28;3.05;;;;;;;;;;8345521;28;20033;-60
2023/06/17 18:41:43;;;;;;;3.53;3.00;;;;;;;;;;8347785;28;20017;-60
2023/06/17 18:45:43;;;;;;;7.40;4.10;;;;;;;;;;8337688;28;20032;-60
2023/06/17 18:49:43;;;;;;;7.68;3.70;;;;;;;;;;8348196;28;20017;-60
2023/06/17 18:53:43;;;;;;;8.23;3.53;;;;;;;;;;8344257;28;20025;-60
2023/06/17 18:57:43;;;;;;;13.00;3.58;;;;;;;;;;8345751;28;20057;-60
2023/06/17 19:01:44;;;;;;;10.55;3.78;;;;;;;;;;8348493;28;20266;-60
2023/06/17 19:05:44;;;;;;;6.30;3.27;;;;;;;;;;8342728;28;20085;-60
2023/06/17 19:09:47;;;;;;;4.65;3.35;;;;;;;;;;8345731;28;21215;-60
2023/06/17 19:13:47;;;;;;;4.13;3.38;;;;;;;;;;8347992;28;20023;-60
2023/06/17 19:17:47;;;;;;;3.60;3.25;;;;;;;;;;8348614;28;20492;-60
2023/06/17 19:21:48;;;;;;;8.88;3.50;;;;;;;;;;8348196;28;20024;-60
2023/06/17 19:25:48;;;;;;;9.37;3.93;;;;;;;;;;8348570;28;20020;-60
2023/06/17 19:29:48;;;;;;;5.85;3.47;;;;;;;;;;8349988;28;20024;-60
2023/06/17 19:33:48;;;;;;;4.53;3.15;;;;;;;;;;8346071;28;20110;-61
2023/06/17 19:37:48;;;;;;;4.10;3.55;;;;;;;;;;8349188;28;20020;-60
2023/06/17 19:41:48;;;;;;;4.75;3.40;;;;;;;;;;8347754;28;20025;-60
2023/06/17 19:45:49;;;;;;;3.75;3.40;;;;;;;;;;8345035;28;20068;-60
2023/06/17 19:49:49;;;;;;;6.22;3.30;;;;;;;;;;8346427;28;20093;-60
2023/06/17 19:53:50;;;;;;;4.68;3.40;;;;;;;;;;8345806;28;20013;-60
2023/06/17 19:57:51;;;;;;;6.55;3.30;;;;;;;;;;8348571;28;20021;-60
2023/06/17 20:01:51;;;;;;;4.60;3.80;;;;;;;;;;8346115;28;20060;-60
2023/06/17 20:05:51;;;;;;;4.55;3.90;;;;;;;;;;8347298;28;20521;-60
2023/06/17 20:09:51;;;;;;;4.10;3.70;;;;;;;;;;8347720;28;20020;-60
2023/06/17 20:13:51;;;;;;;6.13;3.42;;;;;;;;;;8346433;28;20032;-60
2023/06/17 20:17:52;;;;;;;6.10;3.40;;;;;;;;;;8346090;28;20039;-60
2023/06/17 20:21:52;;;;;;;4.35;3.20;;;;;;;;;;8344020;28;20039;-60
2023/06/17 20:25:52;;;;;;;4.13;3.45;;;;;;;;;;8339797;28;20040;-60
2023/06/17 20:29:52;;;;;;;3.40;3.10;;;;;;;;;;8344050;28;20872;-60
2023/06/17 20:33:53;;;;;;;5.25;3.30;;;;;;;;;;8344779;28;20350;-60
2023/06/17 20:37:53;;;;;;;3.92;3.40;;;;;;;;;;8341741;28;20124;-60
2023/06/17 20:41:53;;;;;;;4.50;3.35;;;;;;;;;;8341855;28;20032;-60
2023/06/17 20:45:55;;;;;;;4.95;3.42;;;;;;;;;;8339991;28;20123;-60
2023/06/17 20:49:55;;;;;;;4.07;3.47;;;;;;;;;;8345353;28;20025;-60
2023/06/17 20:53:55;;;;;;;3.72;3.13;;;;;;;;;;8342889;28;20021;-60
2023/06/17 20:57:55;;;;;;;3.55;3.25;;;;;;;;;;8349985;28;20025;-61
2023/06/17 21:01:55;;;;;;;5.43;3.38;;;;;;;;;;8350787;28;20517;-60
2023/06/17 21:05:55;;;;;;;4.97;2.97;;;;;;;;;;8349272;28;20021;-60
2023/06/17 21:09:56;;;;;;;3.63;3.30;;;;;;;;;;8351268;28;20082;-60
2023/06/17 21:13:57;;;;;;;4.03;3.65;;;;;;;;;;8350677;28;20043;-60
2023/06/17 21:17:58;;;;;;;3.58;3.25;;;;;;;;;;8350783;28;20576;-60
2023/06/17 21:21:59;;;;;;;3.97;3.58;;;;;;;;;;8350811;28;20086;-60
2023/06/17 21:26:00;;;;;;;5.93;3.60;;;;;;;;;;8351519;28;20024;-60
2023/06/17 21:30:00;;;;;;;5.03;3.30;;;;;;;;;;8353325;28;20157;-59
2023/06/17 21:34:00;;;;;;;3.70;3.00;;;;;;;;;;8350303;28;20040;-59
2023/06/17 21:38:00;;;;;;;4.25;3.20;;;;;;;;;;8353170;28;20021;-59
2023/06/17 21:42:00;;;;;;;3.80;2.78;;;;;;;;;;8348678;28;20029;-60
2023/06/17 21:46:00;;;;;;;3.90;2.90;;;;;;;;;;8345678;28;20032;-59
2023/06/17 21:50:01;;;;;;;4.57;2.70;;;;;;;;;;8346410;28;20066;-60
2023/06/17 21:54:02;;;;;;;4.85;2.92;;;;;;;;;;8347639;28;20033;-59
2023/06/17 21:58:02;;;;;;;3.22;2.92;;;;;;;;;;8350282;28;20548;-59
2023/06/17 22:02:02;;;;;;;4.82;3.10;;;;;;;;;;8350299;28;20562;-60
2023/06/17 22:06:02;;;;;;;4.73;3.00;;;;;;;;;;8349307;28;20024;-60
2023/06/17 22:10:03;;;;;;;3.00;2.70;;;;;;;;;;8348528;28;20143;-59
2023/06/17 22:14:03;;;;;;;6.93;3.00;;;;;;;;;;8350738;28;20070;-60
2023/06/17 22:18:03;;;;;;;3.20;2.90;;;;;;;;;;8349315;28;20052;-60
2023/06/17 22:22:03;;;;;;;2.95;2.75;;;;;;;;;;8350809;28;20024;-60
2023/06/17 22:26:04;;;;;;;2.83;2.60;;;;;;;;;;8349523;28;20033;-60
2023/06/17 22:30:04;;;;;;;3.57;2.83;;;;;;;;;;8351042;28;20344;-60
2023/06/17 22:34:04;;;;;;;2.90;2.70;;;;;;;;;;8347528;28;20017;-59
2023/06/17 22:38:05;;;;;;;3.28;2.60;;;;;;;;;;8350829;28;20110;-60
2023/06/17 22:42:05;;;;;;;4.47;3.08;;;;;;;;;;8349782;28;20511;-60
2023/06/17 22:46:07;;;;;;;4.70;2.78;;;;;;;;;;8346883;28;20944;-60
2023/06/17 22:50:07;;;;;;;2.92;2.60;;;;;;;;;;8348445;28;20024;-60
2023/06/17 22:54:07;;;;;;;3.25;2.92;;;;;;;;;;8348945;28;20032;-60
2023/06/17 22:58:07;;;;;;;4.00;2.65;;;;;;;;;;8347195;28;20923;-60
2023/06/17 23:02:08;;;;;;;3.00;2.70;;;;;;;;;;8346208;28;20067;-60
2023/06/17 23:06:08;;;;;;;5.47;2.55;;;;;;;;;;8345940;28;20032;-60
2023/06/17 23:10:08;;;;;;;4.82;2.80;;;;;;;;;;8349711;28;20033;-60
2023/06/17 23:14:08;;;;;;;4.15;2.50;;;;;;;;;;8347530;28;20615;-60
2023/06/17 23:18:09;;;;;;;3.97;2.60;;;;;;;;;;8343333;28;20284;-60
2023/06/17 23:22:10;;;;;;;4.05;2.63;;;;;;;;;;8343828;28;20032;-60
2023/06/17 23:26:11;;;;;;;3.58;3.10;;;;;;;;;;8347289;28;20021;-61
2023/06/17 23:30:13;;;;;;;2.92;2.70;;;;;;;;;;8346539;28;20037;-60
2023/06/17 23:34:13;;;;;;;3.20;2.72;;;;;;;;;;8347492;28;20425;-60
2023/06/17 23:38:13;;;;;;;3.25;2.95;;;;;;;;;;8345086;28;20063;-60
2023/06/17 23:42:14;;;;;;;3.38;2.90;;;;;;;;;;8344608;28;20032;-60
2023/06/17 23:46:15;;;;;;;3.57;2.87;;;;;;;;;;8344143;28;20037;-60
2023/06/17 23:50:15;;;;;;;2.88;2.58;;;;;;;;;;8348102;28;20077;-60
2023/06/17 23:54:15;;;;;;;5.13;2.85;;;;;;;;;;8346319;28;20021;-60
2023/06/17 23:58:16;;;;;;;3.60;3.30;;;;;;;;;;8346529;28;20085;-60
